Time;durP1;ratioP1;P1;durP2;ratioP2;P2;SDS_P1;SDS_P2;PMS_P1;PMS_P2;Temp;Humidity;BMP_temperature;BMP_pressure;BME280_temperature;BME280_humidity;BME280_pressure;Samples;Min_cycle;Max_cycle;Signal;HPM_P1;HPM_P2
2021/06/25 00:01:16;;;;;;;;;;;;;;;28.31;52.84;99579.78;5115173;28;20332;-38
2021/06/25 00:03:41;;;;;;;;;;;;;;;28.30;53.36;99581.72;5131184;27;19928;-37
2021/06/25 00:06:07;;;;;;;;;;;;;;;29.08;51.21;99580.63;5115258;28;19915;-37
2021/06/25 00:08:32;;;;;;;;;;;;;;;28.58;52.30;99575.88;5115020;28;20305;-37
2021/06/25 00:10:57;;;;;;;;;;;;;;;28.24;53.21;99575.63;5115336;28;19912;-38
2021/06/25 00:13:22;;;;;;;;;;;;;;;28.16;53.62;99567.44;5115187;28;19946;-38
2021/06/25 00:15:48;;;;;;;;;;;;;;;28.11;53.66;99564.88;5114992;28;19977;-38
2021/06/25 00:18:14;;;;;;;;;;;;;;;28.39;53.03;99555.16;5114719;28;19998;-37
2021/06/25 00:20:39;;;;;;;;;;;;;;;29.00;51.29;99565.03;5114484;28;19959;-38
2021/06/25 00:23:04;;;;;;;;;;;;;;;28.18;53.57;99559.69;5114697;28;20335;-38
2021/06/25 00:25:30;;;;;;;;;;;;;;;27.90;54.41;99557.34;5114541;28;19916;-38
2021/06/25 00:27:55;;;;;;;;;;;;;;;27.72;55.10;99553.81;5114770;28;19930;-37
2021/06/25 00:30:20;;;;;;;;;;;;;;;27.67;55.50;99551.22;5114755;28;19958;-38
2021/06/25 00:32:46;;;;;;;;;;;;;;;28.60;52.67;99551.72;5114507;28;19918;-38
2021/06/25 00:35:11;;;;;;;;;;;;;;;27.91;54.57;99563.63;5114262;28;19912;-38
2021/06/25 00:37:36;;;;;;;;;;;;;;;27.64;55.15;99536.25;5114742;28;19911;-38
2021/06/25 00:40:03;;;;;;;;;;;;;;;27.74;55.30;99564.41;5114583;28;19911;-38
2021/06/25 00:42:28;;;;;;;;;;;;;;;28.04;54.61;99563.41;5114668;28;19974;-37
2021/06/25 00:44:53;;;;;;;;;;;;;;;28.37;53.69;99562.88;5114150;28;19921;-37
2021/06/25 00:47:18;;;;;;;;;;;;;;;28.52;53.37;99564.31;5114122;28;19919;-37
2021/06/25 00:49:44;;;;;;;;;;;;;;;27.86;55.31;99570.03;5114280;28;20382;-39
2021/06/25 00:52:12;;;;;;;;;;;;;;;27.79;55.61;99578.72;5113531;28;19912;-37
2021/06/25 00:54:38;;;;;;;;;;;;;;;28.06;54.98;99580.34;5114034;28;20007;-37
2021/06/25 00:57:03;;;;;;;;;;;;;;;27.96;55.51;99577.91;5114182;28;20003;-38
2021/06/25 00:59:28;;;;;;;;;;;;;;;28.90;52.38;99581.84;5114115;28;19916;-38
2021/06/25 01:01:54;;;;;;;;;;;;;;;28.00;55.34;99589.81;5113733;28;20375;-37
2021/06/25 01:04:19;;;;;;;;;;;;;;;27.79;56.00;99580.66;5113727;28;19912;-37
2021/06/25 01:06:44;;;;;;;;;;;;;;;27.75;56.27;99594.16;5113495;28;19915;-38
2021/06/25 01:09:10;;;;;;;;;;;;;;;27.77;56.62;99597.38;5113333;28;19912;-38
2021/06/25 01:11:36;;;;;;;;;;;;;;;28.21;55.47;99606.34;5113379;28;19918;-38
2021/06/25 01:14:01;;;;;;;;;;;;;;;27.98;55.56;99599.47;5113403;28;19912;-38
2021/06/25 01:16:26;;;;;;;;;;;;;;;27.68;56.38;99580.16;5094919;28;20014;-39
2021/06/25 01:18:51;;;;;;;;;;;;;;;27.60;56.71;99584.50;5114072;28;19915;-38
2021/06/25 01:21:17;;;;;;;;;;;;;;;27.79;56.12;99577.91;5113429;28;19919;-37
2021/06/25 01:23:42;;;;;;;;;;;;;;;28.19;54.90;99583.19;5113897;28;19916;-37
2021/06/25 01:26:08;;;;;;;;;;;;;;;28.91;52.55;99580.72;5113527;28;20005;-38
2021/06/25 01:28:33;;;;;;;;;;;;;;;28.02;55.39;99584.03;5094909;28;20006;-37
2021/06/25 01:30:59;;;;;;;;;;;;;;;27.86;55.94;99572.78;5113329;28;20413;-38
2021/06/25 01:33:24;;;;;;;;;;;;;;;27.79;55.94;99566.97;5113523;28;19918;-37
2021/06/25 01:35:50;;;;;;;;;;;;;;;27.77;56.13;99561.81;5094986;28;19915;-37
2021/06/25 01:38:16;;;;;;;;;;;;;;;28.51;54.32;99561.88;5094733;28;19912;-37
2021/06/25 01:40:41;;;;;;;;;;;;;;;28.05;55.25;99559.56;5113211;28;19999;-37
2021/06/25 01:43:07;;;;;;;;;;;;;;;27.80;55.62;99566.66;5112989;28;20292;-39
2021/06/25 01:45:33;;;;;;;;;;;;;;;27.81;55.66;99560.06;5112386;28;19977;-38
2021/06/25 01:47:58;;;;;;;;;;;;;;;27.84;55.30;99555.88;5113098;28;19915;-36
2021/06/25 01:50:24;;;;;;;;;;;;;;;27.95;54.85;99559.94;5112640;28;20047;-38
2021/06/25 01:52:53;;;;;;;;;;;;;;;28.71;52.50;99568.56;5112491;28;20002;-38
2021/06/25 01:55:18;;;;;;;;;;;;;;;27.89;54.25;99555.72;5112927;28;19912;-39
2021/06/25 01:57:44;;;;;;;;;;;;;;;27.72;55.00;99555.72;5112644;28;19911;-37
2021/06/25 02:00:10;;;;;;;;;;;;;;;27.70;54.68;99556.03;5112577;28;19912;-37
2021/06/25 02:02:35;;;;;;;;;;;;;;;27.72;54.46;99555.72;5111551;28;20314;-38
2021/06/25 02:05:00;;;;;;;;;;;;;;;28.32;52.70;99538.44;5093932;28;19959;-37
2021/06/25 02:07:25;;;;;;;;;;;;;;;27.92;53.19;99546.09;5112207;28;19915;-38
2021/06/25 02:09:51;;;;;;;;;;;;;;;27.69;54.02;99544.31;5112522;28;19915;-38
2021/06/25 02:12:16;;;;;;;;;;;;;;;27.57;54.08;99546.06;5112226;28;19923;-37
2021/06/25 02:14:42;;;;;;;;;;;;;;;27.73;53.55;99538.22;5112199;28;19930;-37
2021/06/25 02:17:07;;;;;;;;;;;;;;;27.77;53.59;99541.91;5111618;28;20018;-37
2021/06/25 02:19:33;;;;;;;;;;;;;;;28.16;52.12;99554.56;5112130;28;20365;-37
2021/06/25 02:21:58;;;;;;;;;;;;;;;27.82;52.78;99553.47;5097370;28;20015;-37
2021/06/25 02:24:23;;;;;;;;;;;;;;;27.67;53.27;99551.22;5091941;28;20014;-37
2021/06/25 02:26:48;;;;;;;;;;;;;;;27.60;53.65;99550.91;5091669;28;20348;-37
2021/06/25 02:29:14;;;;;;;;;;;;;;;27.67;54.14;99557.50;5091866;28;19920;-38
2021/06/25 02:31:39;;;;;;;;;;;;;;;27.80;53.49;99557.66;5091642;28;19943;-38
2021/06/25 02:34:04;;;;;;;;;;;;;;;28.39;51.81;99568.81;5092052;28;20377;-38
2021/06/25 02:36:29;;;;;;;;;;;;;;;27.96;53.12;99568.94;5091654;28;19919;-38
2021/06/25 02:38:55;;;;;;;;;;;;;;;27.48;54.07;99562.50;5091648;28;19977;-38
2021/06/25 02:41:20;;;;;;;;;;;;;;;27.41;54.85;99557.50;5091804;28;20084;-38
2021/06/25 02:43:46;;;;;;;;;;;;;;;26.97;56.56;99553.06;5091848;28;19912;-39
2021/06/25 02:46:11;;;;;;;;;;;;;;;26.82;57.18;99546.13;5091660;28;20003;-38
2021/06/25 02:48:37;;;;;;;;;;;;;;;27.36;55.77;99549.47;5073491;28;19912;-39
2021/06/25 02:51:02;;;;;;;;;;;;;;;26.99;56.69;99540.69;5091315;28;19913;-38
2021/06/25 02:53:27;;;;;;;;;;;;;;;26.48;58.52;99536.66;5091536;28;20298;-38
2021/06/25 02:55:52;;;;;;;;;;;;;;;26.25;59.30;99536.69;5091562;28;19912;-38
2021/06/25 02:58:18;;;;;;;;;;;;;;;26.03;60.21;99545.72;5091366;28;19912;-39
2021/06/25 03:00:44;;;;;;;;;;;;;;;26.13;59.85;99539.22;5091221;28;19912;-37
2021/06/25 03:03:09;;;;;;;;;;;;;;;26.60;58.12;99545.09;5090593;28;19972;-38
2021/06/25 03:05:34;;;;;;;;;;;;;;;26.32;58.58;99539.78;5090669;28;19920;-38
2021/06/25 03:07:59;;;;;;;;;;;;;;;26.34;58.96;99545.72;5090771;28;19999;-38
2021/06/25 03:10:25;;;;;;;;;;;;;;;26.38;59.27;99558.75;5090642;28;19976;-38
2021/06/25 03:12:50;;;;;;;;;;;;;;;26.66;58.64;99567.59;5090520;28;19912;-47
2021/06/25 03:15:16;;;;;;;;;;;;;;;26.79;57.81;99557.66;5090256;28;19916;-48
2021/06/25 03:17:41;;;;;;;;;;;;;;;27.56;55.53;99567.16;5090227;28;19939;-50
2021/06/25 03:20:07;;;;;;;;;;;;;;;26.87;57.42;99556.91;5090388;28;20368;-49
2021/06/25 03:22:32;;;;;;;;;;;;;;;26.60;58.31;99560.63;5109870;28;19911;-46
2021/06/25 03:24:57;;;;;;;;;;;;;;;26.72;58.02;99566.31;5110960;28;19916;-47
2021/06/25 03:27:23;;;;;;;;;;;;;;;26.94;56.87;99561.88;5110700;28;20419;-47
2021/06/25 03:29:48;;;;;;;;;;;;;;;27.28;55.65;99556.53;5109807;28;19912;-50
2021/06/25 03:32:13;;;;;;;;;;;;;;;27.65;54.69;99554.28;5109211;28;19976;-48
2021/06/25 03:34:38;;;;;;;;;;;;;;;27.26;55.27;99555.22;5112669;28;20386;-49
2021/06/25 03:37:04;;;;;;;;;;;;;;;27.21;55.48;99556.16;5129782;28;19911;-45
2021/06/25 03:39:29;;;;;;;;;;;;;;;27.38;55.34;99552.69;5129767;28;20007;-48
2021/06/25 03:41:54;;;;;;;;;;;;;;;27.54;55.01;99554.94;5129996;28;20344;-49
2021/06/25 03:44:20;;;;;;;;;;;;;;;28.53;52.31;99560.44;5130540;28;19950;-48
2021/06/25 03:46:45;;;;;;;;;;;;;;;28.02;53.42;99564.88;5130976;28;19916;-49
2021/06/25 03:49:10;;;;;;;;;;;;;;;27.80;54.23;99560.41;5131249;28;20307;-46
2021/06/25 03:51:36;;;;;;;;;;;;;;;27.97;53.88;99565.03;5130317;28;19919;-50
2021/06/25 03:54:02;;;;;;;;;;;;;;;28.18;52.70;99560.53;5131247;28;19984;-47
2021/06/25 03:56:27;;;;;;;;;;;;;;;28.71;52.08;99560.34;5131144;28;20010;-47
2021/06/25 03:58:53;;;;;;;;;;;;;;;29.01;51.77;99563.91;5130629;28;20409;-38
2021/06/25 04:01:19;;;;;;;;;;;;;;;28.66;52.55;99555.88;5131010;28;20120;-39
2021/06/25 04:03:44;;;;;;;;;;;;;;;28.62;52.22;99565.88;5131334;28;19918;-39
2021/06/25 04:06:09;;;;;;;;;;;;;;;28.87;51.00;99563.34;5131064;28;19916;-39
2021/06/25 04:08:35;;;;;;;;;;;;;;;29.33;49.00;99558.91;5131205;28;20327;-39
2021/06/25 04:11:00;;;;;;;;;;;;;;;30.31;47.28;99562.06;5131164;28;19995;-37
2021/06/25 04:13:26;;;;;;;;;;;;;;;29.93;47.63;99563.09;5130903;28;20061;-38
2021/06/25 04:15:52;;;;;;;;;;;;;;;29.82;47.49;99568.19;5131366;28;19916;-38
2021/06/25 04:18:17;;;;;;;;;;;;;;;30.03;47.52;99570.09;5130894;28;19930;-38
2021/06/25 04:20:42;;;;;;;;;;;;;;;30.31;46.39;99569.47;5126066;28;20018;-38
2021/06/25 04:23:08;;;;;;;;;;;;;;;30.97;44.95;99566.59;5109932;28;19923;-38
2021/06/25 04:25:33;;;;;;;;;;;;;;;31.16;44.30;99576.19;5110398;28;19915;-38
2021/06/25 04:27:58;;;;;;;;;;;;;;;30.88;44.67;99578.81;5114463;28;19920;-37
2021/06/25 04:30:24;;;;;;;;;;;;;;;30.95;44.00;99579.06;5114574;28;19912;-39
2021/06/25 04:32:49;;;;;;;;;;;;;;;31.16;43.75;99574.22;5104098;28;19916;-37
2021/06/25 04:35:14;;;;;;;;;;;;;;;31.91;42.14;99578.41;5093469;28;20421;-38
2021/06/25 04:37:40;;;;;;;;;;;;;;;31.89;41.84;99577.13;5108804;28;20002;-38
2021/06/25 04:40:05;;;;;;;;;;;;;;;31.48;42.37;99570.88;5113740;28;19912;-38
2021/06/25 04:42:31;;;;;;;;;;;;;;;31.77;41.39;99572.50;5113713;28;20400;-39
2021/06/25 04:44:56;;;;;;;;;;;;;;;31.98;40.89;99574.25;5095562;28;19912;-38
2021/06/25 04:47:21;;;;;;;;;;;;;;;32.78;39.35;99575.94;5112915;28;19923;-38
2021/06/25 04:49:46;;;;;;;;;;;;;;;32.77;39.69;99581.78;5113441;28;20377;-38
2021/06/25 04:52:12;;;;;;;;;;;;;;;32.54;39.92;99557.66;5112735;28;19943;-38
2021/06/25 04:54:37;;;;;;;;;;;;;;;32.83;39.72;99580.41;5113622;28;19922;-39
2021/06/25 04:57:02;;;;;;;;;;;;;;;33.70;37.93;99575.66;5113488;28;20002;-37
2021/06/25 04:59:28;;;;;;;;;;;;;;;33.44;38.36;99581.78;5113327;28;20256;-37
2021/06/25 05:01:53;;;;;;;;;;;;;;;33.40;38.46;99576.19;5113226;28;20003;-37
2021/06/25 05:04:19;;;;;;;;;;;;;;;33.48;38.53;99577.94;5094691;28;19915;-38
2021/06/25 05:06:46;;;;;;;;;;;;;;;33.40;39.05;99581.69;5112972;28;20002;-36
2021/06/25 05:09:11;;;;;;;;;;;;;;;34.58;36.61;99574.91;5113126;28;20071;-38
2021/06/25 05:11:37;;;;;;;;;;;;;;;33.96;37.80;99572.19;5113046;28;20379;-37
2021/06/25 05:14:02;;;;;;;;;;;;;;;33.63;38.65;99570.78;5112428;28;19999;-38
2021/06/25 05:16:27;;;;;;;;;;;;;;;33.82;37.81;99563.66;5112468;28;20320;-39
2021/06/25 05:18:54;;;;;;;;;;;;;;;34.20;37.05;99556.50;5112426;28;20293;-38
2021/06/25 05:21:20;;;;;;;;;;;;;;;34.47;35.41;99560.13;5112943;28;20443;-39
2021/06/25 05:23:45;;;;;;;;;;;;;;;34.22;35.62;99552.22;5113162;28;19922;-39
2021/06/25 05:26:10;;;;;;;;;;;;;;;34.30;35.66;99552.34;5112771;28;19934;-38
2021/06/25 05:28:36;;;;;;;;;;;;;;;34.38;35.29;99551.28;5094658;28;19912;-39
2021/06/25 05:31:01;;;;;;;;;;;;;;;34.90;34.75;99554.50;5112536;28;19951;-38
2021/06/25 05:33:26;;;;;;;;;;;;;;;34.51;35.62;99551.91;5112149;28;19926;-38
2021/06/25 05:35:52;;;;;;;;;;;;;;;34.38;35.97;99540.25;5112035;28;19972;-39
2021/06/25 05:38:17;;;;;;;;;;;;;;;34.54;35.91;99537.31;5112395;28;20328;-39
2021/06/25 05:40:43;;;;;;;;;;;;;;;34.54;35.52;99531.81;5093840;28;19919;-39
2021/06/25 05:43:08;;;;;;;;;;;;;;;34.58;35.03;99535.44;5112264;28;19919;-38
2021/06/25 05:45:33;;;;;;;;;;;;;;;34.44;35.53;99531.28;5111851;28;19911;-40
2021/06/25 05:47:59;;;;;;;;;;;;;;;34.74;35.11;99538.06;5112220;28;19916;-37
2021/06/25 05:50:25;;;;;;;;;;;;;;;35.11;34.77;99529.94;5112449;28;20355;-38
2021/06/25 05:52:50;;;;;;;;;;;;;;;35.72;34.07;99527.13;5112034;28;20367;-38
2021/06/25 05:55:15;;;;;;;;;;;;;;;35.97;33.30;99538.50;5111940;28;19934;-38
2021/06/25 05:57:42;;;;;;;;;;;;;;;35.50;34.30;99534.38;5093585;28;20302;-39
2021/06/25 06:00:08;;;;;;;;;;;;;;;35.59;33.94;99526.59;5111736;28;20011;-39
2021/06/25 06:02:33;;;;;;;;;;;;;;;35.63;34.23;99530.19;5111968;28;19955;-39
2021/06/25 06:04:58;;;;;;;;;;;;;;;36.55;33.01;99534.25;5111933;28;19919;-38
2021/06/25 06:07:23;;;;;;;;;;;;;;;36.10;33.37;99528.72;5111830;28;19915;-39
2021/06/25 06:09:49;;;;;;;;;;;;;;;36.16;33.25;99526.41;5093441;28;20403;-38
2021/06/25 06:12:14;;;;;;;;;;;;;;;36.28;33.11;99528.13;5111881;28;20399;-39
2021/06/25 06:14:39;;;;;;;;;;;;;;;36.13;33.30;99530.72;5111704;28;19959;-38
2021/06/25 06:17:05;;;;;;;;;;;;;;;36.86;32.21;99527.41;5111785;28;19930;-38
2021/06/25 06:19:41;;;;;;;;;;;;;;;36.44;32.74;99506.47;5110897;28;19911;-39
2021/06/25 06:33:27;;;;;;;;;;;;;;;37.82;30.87;99492.13;5090612;28;20033;-39
2021/06/25 06:35:53;;;;;;;;;;;;;;;38.43;29.92;99495.75;5090661;28;19911;-39
2021/06/25 06:38:18;;;;;;;;;;;;;;;39.33;28.31;99495.53;5090803;28;19912;-40
2021/06/25 06:40:44;;;;;;;;;;;;;;;38.70;29.48;99500.88;5090883;28;20387;-40
2021/06/25 06:43:09;;;;;;;;;;;;;;;38.75;29.57;99506.06;5090883;28;19922;-39
2021/06/25 06:45:35;;;;;;;;;;;;;;;38.54;29.58;99506.88;5090445;28;19912;-39
2021/06/25 06:48:01;;;;;;;;;;;;;;;39.26;28.73;99506.69;5072371;28;19912;-38
2021/06/25 06:50:26;;;;;;;;;;;;;;;38.74;29.07;99507.22;5090529;28;20015;-40
2021/06/25 06:52:51;;;;;;;;;;;;;;;38.74;29.09;99500.88;5090577;28;20403;-40
2021/06/25 06:55:17;;;;;;;;;;;;;;;38.67;29.48;99505.28;5090633;28;20053;-40
2021/06/25 06:57:43;;;;;;;;;;;;;;;39.43;28.45;99493.88;5090680;28;20060;-39
2021/06/25 07:00:08;;;;;;;;;;;;;;;39.11;28.66;99494.84;5090804;28;19916;-39
2021/06/25 07:02:37;;;;;;;;;;;;;;;38.77;29.82;99489.75;5090703;28;19916;-38
2021/06/25 07:05:03;;;;;;;;;;;;;;;39.16;28.84;99486.06;5089893;28;20401;-41
2021/06/25 07:07:28;;;;;;;;;;;;;;;39.38;28.96;99481.19;5090568;28;19920;-39
2021/06/25 07:09:54;;;;;;;;;;;;;;;38.94;29.48;99473.41;5072542;28;19965;-40
2021/06/25 07:12:19;;;;;;;;;;;;;;;39.15;28.90;99475.34;5090772;28;19920;-39
2021/06/25 07:14:44;;;;;;;;;;;;;;;39.38;28.95;99464.50;5090610;28;20343;-39
2021/06/25 07:17:09;;;;;;;;;;;;;;;39.60;28.64;99461.63;5090199;28;19961;-39
2021/06/25 07:19:35;;;;;;;;;;;;;;;39.96;27.71;99458.59;5090366;28;20291;-38
2021/06/25 07:22:00;;;;;;;;;;;;;;;39.78;27.93;99456.72;5090438;28;19916;-38
2021/06/25 07:24:25;;;;;;;;;;;;;;;40.19;27.96;99458.78;5090092;28;19912;-40
2021/06/25 07:26:51;;;;;;;;;;;;;;;40.07;27.64;99450.94;5090268;28;19924;-39
2021/06/25 07:29:16;;;;;;;;;;;;;;;39.72;28.11;99449.19;5090709;28;19919;-40
2021/06/25 07:31:41;;;;;;;;;;;;;;;39.68;28.28;99458.38;5090182;28;20015;-41
2021/06/25 07:34:07;;;;;;;;;;;;;;;39.90;28.00;99455.47;5089942;28;19919;-40
2021/06/25 07:36:32;;;;;;;;;;;;;;;39.66;28.46;99444.09;5090445;28;19985;-41
2021/06/25 07:38:57;;;;;;;;;;;;;;;40.50;27.66;99458.13;5090318;28;19998;-41
2021/06/25 07:41:22;;;;;;;;;;;;;;;39.72;27.84;99449.19;5090466;28;19984;-40
2021/06/25 07:43:48;;;;;;;;;;;;;;;39.22;28.76;99447.50;5090476;28;19912;-40
2021/06/25 07:46:13;;;;;;;;;;;;;;;38.64;29.38;99452.47;5089961;28;20076;-39
2021/06/25 07:48:38;;;;;;;;;;;;;;;39.62;28.04;99448.91;5090060;28;20330;-41
2021/06/25 07:51:04;;;;;;;;;;;;;;;39.40;27.86;99453.75;5089957;28;19916;-40
2021/06/25 07:53:29;;;;;;;;;;;;;;;39.84;28.11;99451.50;5089997;28;19939;-40
2021/06/25 07:55:54;;;;;;;;;;;;;;;40.03;27.47;99450.97;5090132;28;19912;-40
2021/06/25 07:58:20;;;;;;;;;;;;;;;39.86;27.32;99446.31;5090213;28;20436;-39
2021/06/25 08:00:45;;;;;;;;;;;;;;;39.88;27.48;99447.50;5090654;28;19934;-41
2021/06/25 08:03:10;;;;;;;;;;;;;;;38.98;28.11;99444.41;5093910;28;20007;-40
2021/06/25 08:05:36;;;;;;;;;;;;;;;39.42;26.59;99448.56;5093864;28;19951;-40
2021/06/25 08:08:01;;;;;;;;;;;;;;;39.53;26.28;99436.59;5075838;28;20397;-39
2021/06/25 08:10:26;;;;;;;;;;;;;;;40.04;25.32;99441.44;5093863;28;19934;-40
2021/06/25 08:12:52;;;;;;;;;;;;;;;39.44;26.00;99435.06;5094010;28;19934;-40
2021/06/25 08:15:17;;;;;;;;;;;;;;;39.59;26.16;99433.00;5094759;28;19951;-40
2021/06/25 08:17:42;;;;;;;;;;;;;;;39.36;26.24;99427.94;5093730;28;19924;-40
2021/06/25 08:20:08;;;;;;;;;;;;;;;39.35;25.99;99431.13;5094095;28;19912;-40
2021/06/25 08:22:33;;;;;;;;;;;;;;;39.04;27.13;99433.69;5113945;28;19912;-39
2021/06/25 08:24:58;;;;;;;;;;;;;;;39.96;25.97;99428.75;5114295;28;19974;-40
2021/06/25 08:27:24;;;;;;;;;;;;;;;40.38;25.18;99432.34;5078728;28;19999;-39
2021/06/25 08:29:49;;;;;;;;;;;;;;;41.08;24.99;99428.38;5114473;28;19922;-41
2021/06/25 08:32:14;;;;;;;;;;;;;;;41.41;24.44;99429.56;5114215;28;19912;-40
2021/06/25 08:34:40;;;;;;;;;;;;;;;41.34;25.06;99426.88;5113936;28;19969;-39
2021/06/25 08:37:05;;;;;;;;;;;;;;;40.73;25.94;99435.97;5113907;28;19956;-41
2021/06/25 08:39:30;;;;;;;;;;;;;;;40.89;25.05;99429.84;5114089;28;19919;-40
2021/06/25 08:41:57;;;;;;;;;;;;;;;40.80;25.66;99422.00;5114052;28;19911;-39
2021/06/25 08:44:23;;;;;;;;;;;;;;;40.72;25.59;99420.44;5114317;28;20362;-41
2021/06/25 08:46:48;;;;;;;;;;;;;;;40.97;25.31;99411.78;5113806;28;20423;-39
2021/06/25 08:49:15;;;;;;;;;;;;;;;41.20;24.62;99422.28;5113909;28;19912;-40
2021/06/25 08:51:40;;;;;;;;;;;;;;;41.42;24.49;99408.00;5095282;28;19922;-40
2021/06/25 08:54:05;;;;;;;;;;;;;;;41.10;25.51;99409.22;5095660;28;19991;-40
2021/06/25 08:56:32;;;;;;;;;;;;;;;41.63;25.32;99409.72;5094927;28;19950;-40
2021/06/25 08:58:57;;;;;;;;;;;;;;;41.86;24.78;99410.94;5114114;28;19945;-40
2021/06/25 09:01:23;;;;;;;;;;;;;;;42.24;24.01;99407.91;5095845;28;19911;-40
2021/06/25 09:03:52;;;;;;;;;;;;;;;42.25;24.39;99409.47;5113387;28;19912;-40
2021/06/25 09:06:17;;;;;;;;;;;;;;;41.31;25.17;99418.53;5113359;28;20217;-42
2021/06/25 09:08:42;;;;;;;;;;;;;;;41.84;25.09;99410.59;5113448;28;20556;-39
2021/06/25 09:11:17;;;;;;;;;;;;;;;41.92;24.51;99414.81;5113384;28;19998;-41
2021/06/25 09:13:42;;;;;;;;;;;;;;;41.89;24.42;99410.88;5113097;28;19915;-41
2021/06/25 09:16:27;;;;;;;;;;;;;;;41.68;24.77;99400.88;5095272;28;20019;-41
2021/06/25 09:18:55;;;;;;;;;;;;;;;42.05;23.99;99404.66;5112629;28;19924;-39
2021/06/25 09:21:20;;;;;;;;;;;;;;;42.24;23.61;99399.53;5112645;28;20332;-40
2021/06/25 09:23:46;;;;;;;;;;;;;;;42.43;23.36;99390.38;5112975;28;19972;-39
2021/06/25 09:26:11;;;;;;;;;;;;;;;42.55;23.34;99389.72;5113200;28;20033;-39
2021/06/25 09:28:41;;;;;;;;;;;;;;;42.89;23.10;99385.88;5113009;28;20347;-40
2021/06/25 09:31:15;;;;;;;;;;;;;;;43.07;22.94;99396.69;5113051;28;20410;-39
2021/06/25 09:33:43;;;;;;;;;;;;;;;43.59;22.57;99397.91;5112770;28;19915;-41
2021/06/25 09:36:08;;;;;;;;;;;;;;;43.17;22.52;99391.28;5095128;28;20340;-41
2021/06/25 09:38:39;;;;;;;;;;;;;;;43.21;23.08;99389.19;5094557;28;19912;-42
2021/06/25 09:41:17;;;;;;;;;;;;;;;43.13;22.26;99383.75;5112991;28;20426;-41
2021/06/25 09:43:44;;;;;;;;;;;;;;;43.22;22.01;99385.16;5112538;28;20438;-40
2021/06/25 09:46:09;;;;;;;;;;;;;;;43.09;21.65;99376.63;5094070;28;20010;-41
2021/06/25 09:48:50;;;;;;;;;;;;;;;43.01;22.32;99384.41;5111820;28;20000;-38
2021/06/25 09:51:15;;;;;;;;;;;;;;;42.31;22.57;99380.63;5111397;28;19912;-39
2021/06/25 09:54:00;;;;;;;;;;;;;;;43.30;21.84;99381.78;5111633;28;19934;-40
2021/06/25 09:56:25;;;;;;;;;;;;;;;43.14;21.62;99376.91;5111549;28;19912;-40
2021/06/25 09:59:00;;;;;;;;;;;;;;;42.27;21.45;99373.50;5111901;28;19912;-41
2021/06/25 10:01:26;;;;;;;;;;;;;;;42.23;21.05;99372.78;5112168;28;20456;-38
2021/06/25 10:03:52;;;;;;;;;;;;;;;42.59;21.32;99367.28;5112040;28;19920;-43
2021/06/25 10:06:18;;;;;;;;;;;;;;;42.47;21.64;99365.16;5111801;28;20342;-41
2021/06/25 10:08:44;;;;;;;;;;;;;;;42.70;21.13;99369.88;5111576;28;20374;-39
2021/06/25 10:11:09;;;;;;;;;;;;;;;43.03;20.60;99362.41;5112032;28;20007;-39
2021/06/25 10:13:36;;;;;;;;;;;;;;;43.07;20.45;99360.31;5112018;28;20368;-41
2021/06/25 10:16:01;;;;;;;;;;;;;;;43.10;21.04;99367.81;5111810;28;19926;-40
2021/06/25 10:18:28;;;;;;;;;;;;;;;43.41;20.48;99361.13;5111818;28;19927;-39
2021/06/25 10:20:54;;;;;;;;;;;;;;;43.09;20.86;99362.66;5111579;28;20354;-40
2021/06/25 10:23:19;;;;;;;;;;;;;;;43.31;20.70;99351.78;5093042;28;20018;-40
2021/06/25 10:25:44;;;;;;;;;;;;;;;43.83;20.18;99355.69;5092970;28;19968;-39
2021/06/25 10:28:10;;;;;;;;;;;;;;;43.56;19.83;99347.56;5111648;28;20034;-39
2021/06/25 10:30:35;;;;;;;;;;;;;;;43.65;19.77;99337.31;5093304;28;19947;-40
2021/06/25 10:33:01;;;;;;;;;;;;;;;43.25;20.65;99337.47;5093478;28;19915;-39
2021/06/25 10:35:26;;;;;;;;;;;;;;;43.64;20.46;99343.34;5093073;28;19912;-40
2021/06/25 10:37:52;;;;;;;;;;;;;;;43.12;21.33;99345.78;5093141;28;19912;-41
2021/06/25 10:40:21;;;;;;;;;;;;;;;43.24;20.84;99337.91;5093075;28;20425;-39
2021/06/25 10:42:46;;;;;;;;;;;;;;;43.36;20.79;99334.47;5111862;28;20402;-40
2021/06/25 10:45:12;;;;;;;;;;;;;;;43.81;19.88;99330.16;5111640;28;19912;-41
2021/06/25 10:47:50;;;;;;;;;;;;;;;43.73;19.81;99335.16;5111255;28;19919;-39
2021/06/25 10:50:17;;;;;;;;;;;;;;;43.91;20.15;99335.47;5111206;28;19912;-43
2021/06/25 10:52:43;;;;;;;;;;;;;;;44.20;19.77;99333.94;5110980;28;19930;-40
2021/06/25 10:55:09;;;;;;;;;;;;;;;44.16;19.73;99325.63;5093258;28;19916;-38
2021/06/25 10:57:34;;;;;;;;;;;;;;;44.49;19.96;99331.09;5111330;28;19935;-38
2021/06/25 11:00:00;;;;;;;;;;;;;;;44.60;19.17;99340.00;5111087;28;19919;-40
2021/06/25 11:02:40;;;;;;;;;;;;;;;44.73;18.61;99340.03;5092827;28;19911;-40
2021/06/25 11:05:21;;;;;;;;;;;;;;;44.84;18.96;99342.47;5111672;28;19969;-40
2021/06/25 11:07:46;;;;;;;;;;;;;;;44.19;19.60;99337.97;5111463;28;19970;-40
2021/06/25 11:10:11;;;;;;;;;;;;;;;44.39;18.73;99332.97;5111340;28;19912;-40
2021/06/25 11:12:37;;;;;;;;;;;;;;;44.46;18.70;99338.38;5092753;28;19943;-41
2021/06/25 11:15:08;;;;;;;;;;;;;;;44.41;19.44;99333.31;5111078;28;19991;-40
2021/06/25 11:17:46;;;;;;;;;;;;;;;45.32;18.15;99342.63;5110765;28;19968;-40
2021/06/25 11:20:15;;;;;;;;;;;;;;;44.30;19.12;99319.59;5110978;28;19959;-39
2021/06/25 11:22:41;;;;;;;;;;;;;;;44.57;17.95;99328.88;5090769;28;20431;-42
2021/06/25 11:25:15;;;;;;;;;;;;;;;44.64;17.92;99318.25;5091169;28;19955;-40
2021/06/25 11:27:59;;;;;;;;;;;;;;;44.81;17.77;99324.53;5072716;28;19970;-40
2021/06/25 11:30:43;;;;;;;;;;;;;;;45.14;17.50;99313.09;5091117;28;20457;-40
2021/06/25 11:33:23;;;;;;;;;;;;;;;44.49;18.50;99314.25;5090864;28;19920;-41
2021/06/25 11:35:48;;;;;;;;;;;;;;;44.10;18.10;99305.75;5093342;28;19912;-40
2021/06/25 11:38:13;;;;;;;;;;;;;;;45.02;18.72;99311.88;5094758;28;20006;-40
2021/06/25 11:40:46;;;;;;;;;;;;;;;45.03;18.88;99313.47;5094900;28;20437;-40
2021/06/25 11:43:12;;;;;;;;;;;;;;;44.77;18.18;99297.84;5094679;28;20467;-40
2021/06/25 11:45:37;;;;;;;;;;;;;;;44.68;17.85;99295.69;5094569;28;19912;-40
2021/06/25 11:48:03;;;;;;;;;;;;;;;45.08;17.98;99292.47;5094597;28;20429;-41
2021/06/25 11:50:28;;;;;;;;;;;;;;;45.65;17.68;99293.34;5094394;28;19959;-40
2021/06/25 11:52:53;;;;;;;;;;;;;;;45.17;18.85;99292.56;5094224;28;20007;-40
2021/06/25 11:55:19;;;;;;;;;;;;;;;44.88;17.91;99281.47;5094666;28;19916;-40
2021/06/25 11:57:44;;;;;;;;;;;;;;;44.68;18.58;99281.66;5076269;28;19920;-40
2021/06/25 12:00:09;;;;;;;;;;;;;;;45.59;17.11;99274.75;5094957;28;20357;-40
2021/06/25 12:02:54;;;;;;;;;;;;;;;44.79;18.35;99278.53;5094075;28;19982;-40
2021/06/25 12:05:19;;;;;;;;;;;;;;;44.70;18.90;99270.78;5093942;28;19939;-38
2021/06/25 12:07:44;;;;;;;;;;;;;;;43.97;19.38;99262.09;5094088;28;20012;-39
2021/06/25 12:10:10;;;;;;;;;;;;;;;45.17;18.34;99270.09;5094090;28;19916;-41
2021/06/25 12:12:37;;;;;;;;;;;;;;;45.05;18.42;99262.47;5094142;28;19912;-41
2021/06/25 12:15:13;;;;;;;;;;;;;;;44.52;18.01;99264.94;5094036;28;20312;-40
2021/06/25 12:17:45;;;;;;;;;;;;;;;44.63;18.14;99260.59;5094178;28;19935;-41
2021/06/25 12:20:11;;;;;;;;;;;;;;;45.60;17.58;99254.63;5094289;28;19912;-40
2021/06/25 12:22:50;;;;;;;;;;;;;;;45.22;17.85;99260.31;5114718;28;19912;-39
2021/06/25 12:25:26;;;;;;;;;;;;;;;45.13;17.38;99255.41;5114269;28;19919;-40
2021/06/25 12:27:51;;;;;;;;;;;;;;;44.85;17.26;99243.84;5114422;28;19920;-40
2021/06/25 12:30:17;;;;;;;;;;;;;;;44.73;17.56;99241.03;5114534;28;19991;-41
2021/06/25 12:32:42;;;;;;;;;;;;;;;45.20;18.00;99238.34;5114107;28;19923;-41
2021/06/25 12:35:08;;;;;;;;;;;;;;;44.91;17.84;99235.66;5114425;28;19911;-41
2021/06/25 12:38:05;;;;;;;;;;;;;;;45.01;18.77;99239.34;5114383;28;20306;-40
2021/06/25 12:40:46;;;;;;;;;;;;;;;45.11;18.53;99229.00;5069018;28;20424;-40
2021/06/25 12:43:15;;;;;;;;;;;;;;;45.46;17.56;99218.63;5114156;28;19915;-41
2021/06/25 12:45:45;;;;;;;;;;;;;;;44.99;18.30;99225.78;5114238;28;19916;-40
2021/06/25 12:48:20;;;;;;;;;;;;;;;45.21;18.94;99217.44;5113209;28;19915;-40
2021/06/25 12:50:45;;;;;;;;;;;;;;;44.95;18.08;99215.91;5095739;28;20346;-39
2021/06/25 12:53:11;;;;;;;;;;;;;;;46.13;17.30;99211.78;5113617;28;19943;-39
2021/06/25 12:55:36;;;;;;;;;;;;;;;45.36;17.36;99203.72;5113793;28;19919;-41